createdAt,value
2023-04-19T00:02:06.805Z,10.10
2023-04-19T00:04:34.029Z,10.00
2023-04-19T00:07:02.771Z,10.10
2023-04-19T00:09:29.557Z,10.00
2023-04-19T00:11:56.333Z,10.00
2023-04-19T00:14:23.141Z,10.00
2023-04-19T00:16:49.977Z,10.00
2023-04-19T00:19:16.801Z,10.00
2023-04-19T00:21:43.653Z,10.00
2023-04-19T00:24:10.503Z,9.90
2023-04-19T00:26:37.353Z,9.90
2023-04-19T00:29:04.208Z,9.90
2023-04-19T00:31:31.167Z,9.90
2023-04-19T00:33:58.025Z,9.90
2023-04-19T00:36:24.950Z,9.80
2023-04-19T00:38:51.777Z,9.80
2023-04-19T00:41:18.618Z,9.80
2023-04-19T00:43:45.464Z,9.70
2023-04-19T00:46:12.524Z,9.70
2023-04-19T00:48:39.409Z,9.70
2023-04-19T00:51:06.356Z,9.60
2023-04-19T00:53:33.141Z,9.60
2023-04-19T00:56:00.668Z,9.60
2023-04-19T00:58:30.138Z,9.60
2023-04-19T01:00:57.016Z,9.60
2023-04-19T01:03:24.076Z,9.50
2023-04-19T01:05:50.938Z,9.50
2023-04-19T01:08:17.752Z,9.40
2023-04-19T01:10:44.965Z,9.40
2023-04-19T01:13:11.958Z,9.50
2023-04-19T01:15:38.802Z,9.40
2023-04-19T01:18:05.922Z,9.40
2023-04-19T01:20:32.764Z,9.30
2023-04-19T01:22:59.536Z,9.30
2023-04-19T01:25:26.920Z,9.30
2023-04-19T01:27:53.744Z,9.30
2023-04-19T01:30:20.619Z,9.30
2023-04-19T01:32:47.632Z,9.20
2023-04-19T01:35:14.531Z,9.20
2023-04-19T01:37:41.337Z,9.20
2023-04-19T01:40:09.034Z,9.20
2023-04-19T01:42:35.885Z,9.20
2023-04-19T01:45:02.785Z,9.10
2023-04-19T01:47:29.663Z,9.20
2023-04-19T01:49:56.569Z,9.20
2023-04-19T01:52:23.401Z,9.20
2023-04-19T01:54:50.260Z,9.10
2023-04-19T01:57:18.812Z,9.10
2023-04-19T01:59:45.678Z,9.10
2023-04-19T02:02:12.605Z,9.10
2023-04-19T02:04:39.562Z,9.00
2023-04-19T02:07:06.457Z,9.10
2023-04-19T02:09:38.612Z,9.00
2023-04-19T02:12:05.894Z,9.00
2023-04-19T02:14:32.790Z,9.00
2023-04-19T02:16:59.597Z,9.00
2023-04-19T02:19:26.466Z,9.00
2023-04-19T02:21:57.577Z,9.00
2023-04-19T02:24:24.924Z,9.00
2023-04-19T02:26:52.027Z,9.00
2023-04-19T02:29:19.170Z,9.00
2023-04-19T02:31:46.520Z,9.00
2023-04-19T02:34:13.706Z,9.00
2023-04-19T02:36:40.698Z,8.90
2023-04-19T02:39:07.471Z,8.90
2023-04-19T02:41:34.255Z,8.90
2023-04-19T02:44:01.052Z,8.90
2023-04-19T02:46:27.952Z,8.80
2023-04-19T02:48:54.788Z,8.80
2023-04-19T02:51:21.603Z,8.80
2023-04-19T02:53:48.388Z,8.80
2023-04-19T02:56:16.473Z,8.80
2023-04-19T02:58:43.368Z,8.80
2023-04-19T03:01:10.398Z,8.80
2023-04-19T03:03:37.257Z,8.80
2023-04-19T03:06:04.448Z,8.80
2023-04-19T03:08:31.223Z,8.80
2023-04-19T03:10:58.522Z,8.80
2023-04-19T03:13:25.596Z,8.70
2023-04-19T03:15:52.831Z,8.80
2023-04-19T03:18:19.730Z,8.80
2023-04-19T03:20:46.536Z,8.80
2023-04-19T03:23:13.328Z,8.70
2023-04-19T03:25:40.383Z,8.70
2023-04-19T03:28:07.177Z,8.70
2023-04-19T03:30:34.017Z,8.70
2023-04-19T03:33:00.995Z,8.70
2023-04-19T03:35:29.427Z,8.70
2023-04-19T03:37:56.220Z,8.80
2023-04-19T03:40:23.017Z,8.70
2023-04-19T03:42:49.863Z,8.70
2023-04-19T03:45:16.645Z,8.70
2023-04-19T03:47:43.463Z,8.70
2023-04-19T03:50:10.634Z,8.60
2023-04-19T03:52:38.754Z,8.60
2023-04-19T03:55:06.176Z,8.60
2023-04-19T03:57:32.989Z,8.60
2023-04-19T04:00:00.523Z,8.60
2023-04-19T04:02:27.443Z,8.60
2023-04-19T04:04:55.278Z,8.60
2023-04-19T04:07:23.278Z,8.60
2023-04-19T04:09:50.303Z,8.60
2023-04-19T04:12:17.235Z,8.60
2023-04-19T04:14:44.056Z,8.60
2023-04-19T04:17:11.848Z,8.50
2023-04-19T04:19:38.707Z,8.50
2023-04-19T04:22:06.797Z,8.50
2023-04-19T04:24:41.400Z,8.50
2023-04-19T04:27:10.217Z,8.50
2023-04-19T04:29:37.551Z,8.50
2023-04-19T04:32:08.269Z,8.40
2023-04-19T04:34:36.754Z,8.40
2023-04-19T04:37:04.075Z,8.40
2023-04-19T04:39:30.983Z,8.40
2023-04-19T04:41:57.895Z,8.50
2023-04-19T04:44:24.984Z,8.50
2023-04-19T04:46:51.935Z,8.60
2023-04-19T04:49:18.851Z,8.70
2023-04-19T04:51:45.790Z,8.70
2023-04-19T04:54:12.557Z,8.80
2023-04-19T04:56:39.460Z,8.90
2023-04-19T04:59:07.725Z,9.00
2023-04-19T05:01:34.607Z,9.10
2023-04-19T05:04:01.549Z,9.20
2023-04-19T05:06:28.461Z,9.30
2023-04-19T05:08:55.407Z,9.40
2023-04-19T05:11:22.270Z,9.40
2023-04-19T05:13:49.065Z,9.40
2023-04-19T05:16:16.951Z,9.50
2023-04-19T05:18:43.922Z,9.60
2023-04-19T05:21:10.756Z,9.60
2023-04-19T05:23:38.255Z,9.70
2023-04-19T05:26:05.439Z,9.80
2023-04-19T05:28:32.382Z,9.80
2023-04-19T05:30:59.314Z,9.80
2023-04-19T05:33:26.138Z,9.90
2023-04-19T05:35:52.918Z,9.90
2023-04-19T05:38:19.825Z,10.00
2023-04-19T05:40:46.710Z,10.00
2023-04-19T05:43:13.516Z,10.10
2023-04-19T05:45:40.355Z,10.10
2023-04-19T05:48:07.166Z,10.20
2023-04-19T05:50:34.872Z,10.20
2023-04-19T05:53:01.764Z,10.30
2023-04-19T05:55:28.574Z,10.30
2023-04-19T05:57:55.694Z,10.30
2023-04-19T06:00:22.642Z,10.40
2023-04-19T06:02:49.625Z,10.40
2023-04-19T06:05:16.784Z,10.50
2023-04-19T06:07:54.563Z,10.50
2023-04-19T06:10:23.611Z,10.50
2023-04-19T06:12:50.451Z,10.60
2023-04-19T06:15:17.522Z,10.70
2023-04-19T06:17:44.533Z,10.70
2023-04-19T06:20:12.361Z,10.70
2023-04-19T06:22:45.090Z,10.80
2023-04-19T06:25:12.563Z,10.80
2023-04-19T06:27:40.742Z,10.80
2023-04-19T06:30:09.246Z,10.90
2023-04-19T06:32:36.222Z,10.90
2023-04-19T06:35:03.590Z,11.00
2023-04-19T06:37:30.372Z,11.00
2023-04-19T06:39:57.390Z,11.10
2023-04-19T06:42:25.466Z,11.20
2023-04-19T06:44:52.359Z,11.40
2023-04-19T06:47:20.273Z,11.50
2023-04-19T06:49:47.132Z,11.60
2023-04-19T06:52:13.946Z,11.70
2023-04-19T06:54:41.817Z,11.70
2023-04-19T06:57:08.685Z,11.70
2023-04-19T06:59:39.812Z,11.80
2023-04-19T07:02:06.925Z,11.90
2023-04-19T07:04:34.065Z,11.90
2023-04-19T07:07:01.006Z,11.90
2023-04-19T07:09:28.210Z,12.00
2023-04-19T07:11:55.088Z,12.00
2023-04-19T07:14:21.963Z,11.90
2023-04-19T07:16:50.247Z,11.80
2023-04-19T07:19:19.469Z,11.80
2023-04-19T07:21:46.313Z,11.80
2023-04-19T07:24:13.252Z,11.80
2023-04-19T07:26:40.154Z,11.90
2023-04-19T07:29:07.037Z,11.90
2023-04-19T07:31:33.970Z,12.00
2023-04-19T07:34:00.836Z,12.10
2023-04-19T07:36:27.820Z,12.20
2023-04-19T07:38:54.887Z,12.20
2023-04-19T07:41:21.655Z,12.30
2023-04-19T07:43:48.664Z,12.50
2023-04-19T07:46:18.850Z,12.50
2023-04-19T07:48:46.454Z,12.50
2023-04-19T07:51:14.395Z,12.50
2023-04-19T07:53:41.839Z,12.40
2023-04-19T07:56:12.124Z,12.50
2023-04-19T07:58:39.784Z,12.50
2023-04-19T08:01:07.114Z,12.50
2023-04-19T08:03:34.328Z,12.60
2023-04-19T08:06:02.415Z,12.60
2023-04-19T08:08:29.193Z,12.70
2023-04-19T08:10:56.015Z,12.60
2023-04-19T08:13:23.109Z,12.80
2023-04-19T08:16:27.131Z,12.90
2023-04-19T08:18:37.091Z,13.10
2023-04-19T08:21:04.258Z,13.00
2023-04-19T08:23:41.202Z,13.20
2023-04-19T08:26:12.040Z,13.10
2023-04-19T08:28:38.817Z,13.20
2023-04-19T08:31:09.026Z,13.30
2023-04-19T08:33:35.957Z,13.20
2023-04-19T08:36:02.786Z,13.20
2023-04-19T08:38:29.583Z,13.40
2023-04-19T08:40:56.552Z,13.40
2023-04-19T08:43:24.690Z,13.40
2023-04-19T08:45:51.680Z,13.40
2023-04-19T08:48:18.717Z,13.40
2023-04-19T08:51:00.726Z,13.40
2023-04-19T08:53:33.279Z,13.50
2023-04-19T08:58:51.925Z,13.70
2023-04-19T09:01:33.864Z,13.90
2023-04-19T09:04:26.575Z,13.80
2023-04-19T09:06:52.797Z,13.90
2023-04-19T09:11:59.638Z,14.30
2023-04-19T09:14:27.077Z,14.50
2023-04-19T09:16:53.903Z,14.50
2023-04-19T09:19:24.922Z,14.40
2023-04-19T09:21:54.430Z,14.50
2023-04-19T09:25:13.918Z,14.60
2023-04-19T09:27:30.219Z,14.40
2023-04-19T09:29:57.762Z,14.30
2023-04-19T09:32:25.120Z,14.20
2023-04-19T09:34:59.524Z,14.20
2023-04-19T09:37:51.592Z,14.30
2023-04-19T09:40:23.675Z,14.30
2023-04-19T09:45:29.795Z,14.50
2023-04-19T09:48:05.891Z,14.50
2023-04-19T09:50:34.045Z,14.50
2023-04-19T09:53:09.097Z,14.40
2023-04-19T09:55:44.733Z,14.40
2023-04-19T09:58:20.835Z,14.40
2023-04-19T10:00:51.320Z,14.50
2023-04-19T10:03:22.094Z,14.60
2023-04-19T10:05:49.204Z,14.60
2023-04-19T10:08:16.366Z,14.70
2023-04-19T10:10:45.569Z,14.70
2023-04-19T10:15:51.233Z,14.70
2023-04-19T10:18:20.639Z,14.70
2023-04-19T10:21:01.717Z,14.70
2023-04-19T10:23:29.037Z,14.70
2023-04-19T10:25:57.580Z,14.60
2023-04-19T10:28:24.558Z,14.70
2023-04-19T10:31:03.855Z,14.70
2023-04-19T10:33:32.184Z,14.80
2023-04-19T10:35:59.693Z,15.00
2023-04-19T10:38:37.247Z,15.20
2023-04-19T10:41:05.460Z,14.90
2023-04-19T10:43:34.321Z,15.00
2023-04-19T10:46:02.502Z,15.00
2023-04-19T10:48:35.674Z,15.20
2023-04-19T10:51:03.276Z,15.20
2023-04-19T10:53:45.674Z,15.20
2023-04-19T10:56:12.849Z,15.10
2023-04-19T10:59:01.339Z,15.20
2023-04-19T11:01:40.793Z,15.10
2023-04-19T11:04:08.515Z,15.20
2023-04-19T11:06:39.484Z,15.50
2023-04-19T11:09:07.306Z,15.60
2023-04-19T11:11:35.936Z,15.50
2023-04-19T11:14:04.313Z,15.60
2023-04-19T11:16:45.214Z,15.90
2023-04-19T11:19:19.666Z,15.70
2023-04-19T11:21:47.040Z,15.60
2023-04-19T11:24:16.240Z,15.50
2023-04-19T11:26:44.145Z,15.70
2023-04-19T11:29:10.988Z,15.60
2023-04-19T11:31:37.944Z,15.70
2023-04-19T11:34:04.903Z,15.80
2023-04-19T11:36:32.389Z,15.70
2023-04-19T11:38:59.262Z,15.60
2023-04-19T11:41:26.057Z,15.60
2023-04-19T11:43:52.922Z,15.80
2023-04-19T11:46:19.761Z,16.00
2023-04-19T11:48:53.318Z,15.80
2023-04-19T11:51:20.449Z,15.90
2023-04-19T11:53:47.355Z,16.20
2023-04-19T11:56:15.527Z,16.40
2023-04-19T11:58:48.841Z,16.30
2023-04-19T12:01:20.015Z,16.10
2023-04-19T12:03:47.898Z,16.00
2023-04-19T12:06:28.681Z,16.10
2023-04-19T12:08:56.225Z,16.10
2023-04-19T12:11:24.431Z,16.20
2023-04-19T12:14:13.831Z,16.30
2023-04-19T12:16:41.231Z,16.30
2023-04-19T12:19:18.070Z,16.20
2023-04-19T12:21:46.123Z,16.20
2023-04-19T12:24:14.959Z,16.20
2023-04-19T12:26:58.113Z,16.10
2023-04-19T12:29:27.529Z,16.00
2023-04-19T12:31:54.421Z,15.90
2023-04-19T12:34:21.228Z,16.00
2023-04-19T12:36:48.057Z,15.90
2023-04-19T12:39:14.997Z,16.00
2023-04-19T12:41:41.996Z,15.90
2023-04-19T12:44:08.901Z,16.10
2023-04-19T12:46:36.751Z,16.10
2023-04-19T12:49:03.626Z,16.10
2023-04-19T12:51:31.750Z,16.00
2023-04-19T12:53:58.619Z,16.20
2023-04-19T12:56:25.584Z,16.10
2023-04-19T12:58:53.028Z,16.10
2023-04-19T13:01:19.902Z,16.20
2023-04-19T13:03:46.899Z,16.30
2023-04-19T13:06:15.549Z,16.20
2023-04-19T13:08:46.597Z,16.30
2023-04-19T13:11:14.845Z,16.30
2023-04-19T13:13:41.701Z,16.20
2023-04-19T13:16:08.585Z,16.20
2023-04-19T13:18:35.520Z,16.20
2023-04-19T13:21:02.314Z,16.20
2023-04-19T13:23:29.188Z,16.20
2023-04-19T13:25:56.093Z,16.30
2023-04-19T13:28:22.914Z,16.30
2023-04-19T13:30:49.823Z,16.20
2023-04-19T13:33:16.676Z,16.20
2023-04-19T13:35:45.050Z,16.20
2023-04-19T13:38:11.974Z,16.30
2023-04-19T13:40:38.764Z,16.10
2023-04-19T13:43:05.591Z,16.00
2023-04-19T13:45:32.426Z,16.30
2023-04-19T13:47:59.270Z,16.30
2023-04-19T13:50:26.088Z,16.50
2023-04-19T13:52:53.031Z,16.60
2023-04-19T13:55:20.020Z,16.80
2023-04-19T13:57:46.814Z,16.40
2023-04-19T14:00:14.343Z,16.60
2023-04-19T14:02:41.761Z,16.30
2023-04-19T14:05:09.260Z,16.30
2023-04-19T14:07:36.204Z,16.50
2023-04-19T14:10:03.039Z,16.50
2023-04-19T14:12:29.896Z,16.50
2023-04-19T14:14:56.754Z,16.30
2023-04-19T14:17:23.591Z,16.30
2023-04-19T14:19:50.372Z,16.50
2023-04-19T14:22:17.456Z,16.70
2023-04-19T14:24:45.918Z,16.70
2023-04-19T14:27:12.721Z,16.70
2023-04-19T14:29:39.844Z,16.80
2023-04-19T14:32:21.373Z,16.60
2023-04-19T14:34:52.544Z,16.40
2023-04-19T14:37:19.511Z,16.40
2023-04-19T14:39:46.510Z,16.60
2023-04-19T14:42:13.588Z,16.70
2023-04-19T14:44:40.878Z,16.60
2023-04-19T14:47:07.838Z,16.50
2023-04-19T14:49:34.680Z,16.30
2023-04-19T14:52:01.551Z,16.30
2023-04-19T14:54:28.385Z,16.40
2023-04-19T14:56:55.291Z,16.40
2023-04-19T14:59:22.197Z,16.30
2023-04-19T15:01:49.087Z,16.40
2023-04-19T15:04:16.593Z,16.50
2023-04-19T15:06:43.542Z,16.60
2023-04-19T15:09:10.432Z,16.60
2023-04-19T15:11:37.282Z,16.50
2023-04-19T15:14:04.076Z,16.40
2023-04-19T15:16:31.362Z,16.20
2023-04-19T15:18:58.257Z,16.30
2023-04-19T15:21:25.088Z,16.40
2023-04-19T15:23:51.903Z,16.40
2023-04-19T15:26:18.942Z,16.50
2023-04-19T15:28:45.821Z,16.60
2023-04-19T15:31:12.680Z,16.60
2023-04-19T15:33:39.626Z,16.50
2023-04-19T15:36:06.758Z,16.70
2023-04-19T15:38:33.606Z,16.70
2023-04-19T15:41:03.585Z,16.60
2023-04-19T15:43:31.532Z,16.50
2023-04-19T15:45:58.339Z,16.60
2023-04-19T15:48:25.277Z,16.60
2023-04-19T15:50:52.076Z,16.60
2023-04-19T15:53:18.914Z,16.50
2023-04-19T15:55:47.978Z,16.30
2023-04-19T15:58:15.521Z,16.50
2023-04-19T16:00:42.315Z,16.60
2023-04-19T16:03:12.415Z,16.70
2023-04-19T16:05:40.130Z,16.50
2023-04-19T16:08:09.959Z,16.90
2023-04-19T16:10:36.954Z,17.10
2023-04-19T16:13:04.835Z,17.30
2023-04-19T16:15:32.251Z,17.50
2023-04-19T16:17:59.119Z,17.60
2023-04-19T16:20:26.023Z,17.80
2023-04-19T16:22:52.920Z,18.00
2023-04-19T16:25:19.761Z,18.10
2023-04-19T16:27:46.600Z,18.30
2023-04-19T16:30:14.002Z,18.10
2023-04-19T16:32:41.619Z,17.80
2023-04-19T16:35:08.817Z,17.90
2023-04-19T16:37:35.914Z,18.20
2023-04-19T16:40:08.498Z,18.40
2023-04-19T16:42:40.056Z,18.20
2023-04-19T16:45:07.619Z,18.10
2023-04-19T16:47:34.862Z,17.90
2023-04-19T16:50:01.903Z,17.70
2023-04-19T16:52:30.653Z,17.70
2023-04-19T16:54:57.484Z,18.00
2023-04-19T16:57:24.416Z,18.00
2023-04-19T16:59:51.295Z,18.00
2023-04-19T17:02:18.268Z,18.40
2023-04-19T17:04:45.463Z,18.20
2023-04-19T17:07:12.678Z,18.30
2023-04-19T17:09:39.514Z,18.20
2023-04-19T17:12:06.458Z,17.90
2023-04-19T17:14:34.553Z,17.80
2023-04-19T17:17:01.396Z,18.00
2023-04-19T17:19:28.222Z,17.70
2023-04-19T17:21:54.998Z,17.80
2023-04-19T17:24:22.264Z,17.50
2023-04-19T17:26:50.021Z,17.10
2023-04-19T17:29:17.158Z,16.40
2023-04-19T17:31:44.286Z,15.80
2023-04-19T17:34:11.310Z,15.30
2023-04-19T17:36:38.089Z,15.00
2023-04-19T17:39:06.726Z,14.70
2023-04-19T17:41:34.051Z,14.60
2023-04-19T17:44:00.875Z,14.40
2023-04-19T17:46:27.710Z,14.30
2023-04-19T17:48:55.525Z,14.20
2023-04-19T17:51:22.565Z,14.10
2023-04-19T17:53:49.370Z,13.90
2023-04-19T17:56:16.196Z,13.50
2023-04-19T17:58:43.085Z,13.20
2023-04-19T18:01:10.481Z,13.20
2023-04-19T18:03:38.170Z,13.00
2023-04-19T18:06:05.263Z,12.90
2023-04-19T18:08:32.084Z,12.80
2023-04-19T18:10:58.953Z,12.70
2023-04-19T18:13:26.622Z,12.60
2023-04-19T18:15:53.610Z,12.50
2023-04-19T18:18:20.638Z,12.40
2023-04-19T18:20:47.478Z,12.40
2023-04-19T18:23:14.401Z,12.30
2023-04-19T18:25:41.292Z,12.30
2023-04-19T18:28:08.081Z,12.20
2023-04-19T18:30:35.944Z,12.20
2023-04-19T18:33:02.831Z,12.20
2023-04-19T18:35:29.974Z,12.10
2023-04-19T18:37:57.826Z,12.10
2023-04-19T18:40:24.646Z,12.00
2023-04-19T18:42:51.447Z,11.90
2023-04-19T18:45:19.084Z,11.80
2023-04-19T18:47:46.063Z,11.80
2023-04-19T18:50:15.419Z,11.70
2023-04-19T18:52:45.514Z,11.70
2023-04-19T18:55:13.782Z,11.70
2023-04-19T18:57:40.670Z,11.70
2023-04-19T19:00:11.280Z,11.60
2023-04-19T19:02:40.457Z,11.60
2023-04-19T19:05:09.262Z,11.60
2023-04-19T19:07:37.694Z,11.50
2023-04-19T19:10:18.500Z,11.50
2023-04-19T19:12:47.779Z,11.50
2023-04-19T19:15:14.712Z,11.40
2023-04-19T19:17:41.582Z,11.40
2023-04-19T19:20:10.093Z,11.40
2023-04-19T19:22:37.021Z,11.40
2023-04-19T19:25:04.232Z,11.30
2023-04-19T19:27:31.078Z,11.30
2023-04-19T19:29:58.789Z,11.30
2023-04-19T19:32:25.842Z,11.30
2023-04-19T19:34:56.397Z,11.30
2023-04-19T19:37:27.830Z,11.30
2023-04-19T19:39:56.187Z,11.30
2023-04-19T19:42:24.990Z,11.40
2023-04-19T19:44:55.482Z,11.40
2023-04-19T19:47:23.805Z,11.50
2023-04-19T19:50:31.563Z,11.50
2023-04-19T19:52:37.698Z,11.50
2023-04-19T19:55:04.806Z,11.50
2023-04-19T20:02:34.248Z,11.50
2023-04-19T20:05:01.681Z,11.50
2023-04-19T20:07:42.259Z,11.50
2023-04-19T20:10:15.656Z,11.40
2023-04-19T20:12:43.386Z,11.40
2023-04-19T20:15:13.426Z,11.40
2023-04-19T20:17:40.798Z,11.40
2023-04-19T20:20:11.520Z,11.40
2023-04-19T20:22:38.569Z,11.40
2023-04-19T20:25:05.842Z,11.30
2023-04-19T20:27:33.286Z,11.30
2023-04-19T20:30:00.940Z,11.30
2023-04-19T20:32:27.946Z,11.20
2023-04-19T20:34:54.848Z,11.20
2023-04-19T20:37:22.531Z,11.20
2023-04-19T20:39:49.308Z,11.20
2023-04-19T20:42:16.197Z,11.10
2023-04-19T20:44:43.048Z,11.10
2023-04-19T20:47:10.458Z,11.00
2023-04-19T20:49:37.278Z,11.00
2023-04-19T20:52:04.170Z,11.00
2023-04-19T20:54:31.252Z,10.90
2023-04-19T20:57:02.717Z,10.90
2023-04-19T20:59:29.506Z,10.90
2023-04-19T21:01:56.587Z,10.90
2023-04-19T21:04:23.610Z,10.90
2023-04-19T21:06:50.551Z,10.80
2023-04-19T21:09:17.605Z,10.80
2023-04-19T21:11:44.730Z,10.80
2023-04-19T21:14:11.574Z,10.70
2023-04-19T21:16:38.429Z,10.80
2023-04-19T21:19:05.199Z,10.70
2023-04-19T21:21:32.608Z,10.70
2023-04-19T21:23:59.564Z,10.70
2023-04-19T21:26:26.419Z,10.70
2023-04-19T21:28:53.223Z,10.60
2023-04-19T21:31:20.139Z,10.60
2023-04-19T21:33:46.945Z,10.60
2023-04-19T21:36:13.748Z,10.60
2023-04-19T21:38:40.585Z,10.50
2023-04-19T21:41:08.105Z,10.50
2023-04-19T21:43:34.924Z,10.50
2023-04-19T21:46:04.756Z,10.50
2023-04-19T21:48:31.992Z,10.50
2023-04-19T21:50:58.845Z,10.40
2023-04-19T21:53:25.744Z,10.20
2023-04-19T21:55:52.597Z,10.50
2023-04-19T21:58:19.411Z,10.40
2023-04-19T22:00:46.268Z,10.40
2023-04-19T22:03:13.236Z,10.40
2023-04-19T22:05:41.034Z,10.40
2023-04-19T22:08:07.858Z,10.40
2023-04-19T22:10:34.669Z,10.30
2023-04-19T22:13:03.476Z,10.30
2023-04-19T22:15:30.583Z,10.30
2023-04-19T22:17:58.205Z,10.30
2023-04-19T22:20:26.873Z,10.20
2023-04-19T22:22:53.712Z,10.20
2023-04-19T22:25:20.651Z,10.20
2023-04-19T22:27:48.908Z,10.20
2023-04-19T22:30:16.282Z,10.20
2023-04-19T22:32:43.185Z,10.20
2023-04-19T22:35:10.204Z,10.10
2023-04-19T22:37:37.074Z,10.10
2023-04-19T22:40:06.945Z,10.10
2023-04-19T22:42:33.857Z,10.10
2023-04-19T22:45:00.790Z,10.10
2023-04-19T22:47:28.137Z,10.10
2023-04-19T22:49:55.018Z,10.10
2023-04-19T22:52:21.828Z,10.00
2023-04-19T22:54:48.609Z,10.00
2023-04-19T22:57:15.464Z,10.00
2023-04-19T22:59:42.277Z,10.00
2023-04-19T23:02:09.163Z,10.00
2023-04-19T23:04:36.108Z,9.90
2023-04-19T23:07:03.871Z,10.00
2023-04-19T23:09:30.768Z,10.00
2023-04-19T23:12:00.823Z,9.90
2023-04-19T23:14:29.236Z,9.90
2023-04-19T23:16:57.176Z,9.90
2023-04-19T23:19:25.459Z,9.80
2023-04-19T23:21:52.250Z,9.80
2023-04-19T23:24:19.616Z,9.80
2023-04-19T23:26:46.489Z,9.80
2023-04-19T23:29:13.304Z,9.80
2023-04-19T23:31:40.264Z,9.70
2023-04-19T23:34:07.135Z,9.70
2023-04-19T23:36:33.962Z,9.70
2023-04-19T23:39:01.237Z,9.60
2023-04-19T23:41:28.255Z,9.60
2023-04-19T23:43:55.131Z,9.60
2023-04-19T23:46:22.000Z,9.50
2023-04-19T23:48:48.810Z,9.50
2023-04-19T23:51:15.672Z,9.50
2023-04-19T23:53:42.474Z,9.50
2023-04-19T23:56:09.320Z,9.40
2023-04-19T23:58:36.263Z,9.50
